Time;durP1;ratioP1;P1;durP2;ratioP2;P2;SDS_P1;SDS_P2;PMS_P1;PMS_P2;Temp;Humidity;BMP_temperature;BMP_pressure;BME280_temperature;BME280_humidity;BME280_pressure;Samples;Min_cycle;Max_cycle;Signal;HPM_P1;HPM_P2
2022/07/12 00:01:06;;;;;;;3.55;1.50;;;;;;;20.12;55.14;100689.78;4955293;28;20039;-88
2022/07/12 00:03:33;;;;;;;2.50;1.60;;;;;;;20.12;55.47;100692.41;4952315;28;20074;-87
2022/07/12 00:05:58;;;;;;;3.38;1.85;;;;;;;20.11;56.91;100702.91;4937405;28;20084;-87
2022/07/12 00:08:24;;;;;;;4.03;1.65;;;;;;;19.92;56.49;100675.81;4917077;29;20046;-86
2022/07/12 00:10:50;;;;;;;2.90;1.60;;;;;;;20.03;57.25;100697.66;4916618;29;20095;-88
2022/07/12 00:13:15;;;;;;;2.70;1.48;;;;;;;19.87;57.42;100694.13;4942742;29;20044;-84
2022/07/12 00:15:42;;;;;;;4.20;1.63;;;;;;;19.53;57.75;100673.91;4932802;29;20495;-85
2022/07/12 00:18:08;;;;;;;3.20;1.92;;;;;;;19.62;57.93;100672.22;4916800;29;20076;-86
2022/07/12 00:20:34;;;;;;;3.13;1.50;;;;;;;19.40;57.91;100625.88;4932776;29;20032;-87
2022/07/12 00:22:59;;;;;;;4.30;1.58;;;;;;;19.70;57.81;100671.34;4918254;29;20051;-83
2022/07/12 00:25:25;;;;;;;2.08;1.52;;;;;;;19.16;58.49;100624.03;4913594;29;20028;-84
2022/07/12 00:27:51;;;;;;;3.45;1.80;;;;;;;19.44;59.22;100692.22;4913698;29;20101;-85
2022/07/12 00:30:17;;;;;;;4.35;1.88;;;;;;;19.12;59.72;100637.97;4913776;29;20040;-82
2022/07/12 00:32:43;;;;;;;4.15;1.90;;;;;;;19.19;59.22;100651.97;4929342;29;20414;-81
2022/07/12 00:35:09;;;;;;;2.45;1.40;;;;;;;19.08;59.59;100662.41;4932635;29;20051;-80
2022/07/12 00:37:35;;;;;;;3.33;1.77;;;;;;;19.21;59.68;100699.97;4919800;29;20039;-84
2022/07/12 00:40:01;;;;;;;1.58;1.33;;;;;;;19.01;59.87;100707.72;4935305;29;20063;-83
2022/07/12 00:42:26;;;;;;;1.75;1.20;;;;;;;18.90;60.27;100713.75;4934964;29;20054;-82
2022/07/12 00:44:52;;;;;;;2.65;1.55;;;;;;;18.75;60.87;100690.97;4934463;29;20027;-83
2022/07/12 00:47:40;;;;;;;6.53;1.90;;;;;;;18.78;60.84;100699.66;4934738;29;20027;-84
2022/07/12 00:50:17;;;;;;;2.35;1.60;;;;;;;18.75;60.96;100705.75;4949817;28;20039;-83
2022/07/12 00:52:44;;;;;;;3.65;1.55;;;;;;;18.46;60.99;100701.19;4956312;28;20470;-83
2022/07/12 00:55:11;;;;;;;2.05;1.40;;;;;;;18.34;61.94;100685.41;4948698;28;20501;-88
2022/07/12 00:57:38;;;;;;;1.73;1.45;;;;;;;18.25;62.10;100681.81;4954909;28;20497;-81
2022/07/12 01:00:07;;;;;;;3.85;1.80;;;;;;;18.48;61.62;100719.50;4955964;28;20023;-82
2022/07/12 01:02:33;;;;;;;2.30;1.63;;;;;;;18.22;61.88;100679.19;4955910;28;20027;-85
2022/07/12 01:04:59;;;;;;;4.90;1.50;;;;;;;18.13;62.56;100700.03;4973636;28;20061;-83
2022/07/12 01:07:26;;;;;;;2.90;1.40;;;;;;;17.88;62.56;100662.28;4956305;28;20027;-85
2022/07/12 01:09:54;;;;;;;2.50;1.60;;;;;;;17.95;62.66;100703.31;4956039;28;20058;-84
2022/07/12 01:12:20;;;;;;;2.13;1.50;;;;;;;17.65;63.35;100696.00;4973358;28;20054;-84
2022/07/12 01:14:47;;;;;;;2.60;1.70;;;;;;;17.65;63.83;100702.09;4955538;28;20054;-86
2022/07/12 01:17:13;;;;;;;1.77;1.50;;;;;;;17.67;63.45;100699.50;4960516;28;20027;-85
2022/07/12 01:19:40;;;;;;;2.42;1.60;;;;;;;17.71;62.79;100693.47;4937110;29;20402;-87
2022/07/12 01:22:09;;;;;;;1.60;1.40;;;;;;;17.48;62.74;100660.13;4953339;28;20041;-84
2022/07/12 01:24:35;;;;;;;3.03;2.00;;;;;;;18.06;63.10;100716.50;4935739;29;20034;-78
2022/07/12 01:27:05;;;;;;;5.60;1.65;;;;;;;17.46;63.40;100615.75;4953094;29;20035;-81
2022/07/12 01:29:31;;;;;;;4.32;1.65;;;;;;;17.73;64.33;100682.19;4935772;29;20027;-83
2022/07/12 01:32:24;;;;;;;3.55;2.35;;;;;;;17.98;62.73;100710.31;4953136;29;20101;-85
2022/07/12 01:34:48;;;;;;;3.20;1.88;;;;;;;17.58;62.23;100695.03;4954689;29;20539;-78
2022/07/12 01:37:15;;;;;;;4.28;1.60;;;;;;;17.38;63.43;100707.84;4993204;28;20038;-79
2022/07/12 01:39:42;;;;;;;4.80;1.67;;;;;;;17.58;64.58;100705.50;4991917;28;20054;-80
2022/07/12 01:42:07;;;;;;;3.33;2.00;;;;;;;17.37;64.16;100673.06;4989236;28;20461;-81
2022/07/12 01:44:33;;;;;;;2.47;1.50;;;;;;;17.54;65.07;100698.50;4983742;28;20038;-81
2022/07/12 01:46:58;;;;;;;7.72;1.80;;;;;;;17.68;64.59;100712.56;4989216;28;20125;-84
2022/07/12 01:49:24;;;;;;;3.42;1.80;;;;;;;17.59;64.13;100717.69;4989699;28;20052;-83
2022/07/12 01:51:49;;;;;;;3.45;1.55;;;;;;;17.55;64.17;100698.50;4989575;28;20541;-83
2022/07/12 01:54:15;;;;;;;2.22;1.52;;;;;;;17.65;63.96;100704.72;4972543;28;20026;-83
2022/07/12 01:56:41;;;;;;;2.42;1.67;;;;;;;17.56;63.14;100694.19;4972925;28;20034;-83
2022/07/12 01:59:07;;;;;;;2.83;1.70;;;;;;;17.58;63.79;100663.72;4972998;28;20037;-83
2022/07/12 02:01:33;;;;;;;2.67;1.92;;;;;;;17.09;62.69;100557.06;4989267;28;20129;-83
2022/07/12 02:04:03;;;;;;;2.17;1.58;;;;;;;18.03;62.24;100704.28;4972886;28;20642;-81
2022/07/12 02:06:29;;;;;;;2.90;1.90;;;;;;;17.91;62.94;100712.81;4954299;28;20031;-81
2022/07/12 02:08:55;;;;;;;3.05;1.83;;;;;;;17.68;62.53;100702.13;4945000;28;20042;-83
2022/07/12 02:11:21;;;;;;;3.10;1.70;;;;;;;17.75;62.13;100719.63;4954481;28;20462;-81
2022/07/12 02:13:46;;;;;;;3.45;1.50;;;;;;;17.48;62.99;100678.41;4971403;28;20066;-81
2022/07/12 02:16:12;;;;;;;4.57;1.60;;;;;;;17.56;63.44;100707.22;4933762;28;20461;-83
2022/07/12 02:18:37;;;;;;;3.35;1.63;;;;;;;17.57;63.49;100712.47;4967375;28;20042;-83
2022/07/12 02:21:03;;;;;;;1.75;1.40;;;;;;;17.54;63.10;100688.91;4954698;28;20022;-82
2022/07/12 02:23:28;;;;;;;2.33;1.60;;;;;;;17.73;62.79;100720.47;4970709;28;20035;-82
2022/07/12 02:25:54;;;;;;;1.40;1.30;;;;;;;17.51;63.27;100725.44;4970515;28;20038;-82
2022/07/12 02:28:19;;;;;;;2.20;1.70;;;;;;;17.33;64.52;100719.97;4969645;28;20130;-81
2022/07/12 02:30:45;;;;;;;3.38;1.70;;;;;;;17.30;64.08;100712.97;4953163;29;20035;-82
2022/07/12 02:33:10;;;;;;;2.17;1.75;;;;;;;16.78;65.11;100671.34;4953000;28;20031;-81
2022/07/12 02:35:36;;;;;;;3.10;1.88;;;;;;;16.72;66.26;100706.03;4951512;29;20126;-83
2022/07/12 02:38:02;;;;;;;4.65;1.88;;;;;;;16.74;66.49;100738.22;4935362;29;20071;-84
2022/07/12 02:43:11;;;;;;;2.03;1.55;;;;;;;16.17;67.16;100638.28;4952859;28;20409;-83
2022/07/12 02:45:36;;;;;;;3.38;1.77;;;;;;;16.89;67.04;100726.28;4952695;29;20043;-83
2022/07/12 02:48:02;;;;;;;4.28;1.90;;;;;;;16.50;67.53;100712.66;4953093;29;20471;-81
2022/07/12 02:50:27;;;;;;;2.45;1.70;;;;;;;16.18;68.12;100707.75;4952939;28;20035;-84
2022/07/12 02:52:53;;;;;;;3.58;2.10;;;;;;;16.26;68.01;100681.81;4952809;29;20055;-83
2022/07/12 02:55:18;;;;;;;3.72;1.90;;;;;;;16.65;67.53;100746.78;4952379;29;20110;-86
2022/07/12 02:57:44;;;;;;;5.13;2.00;;;;;;;15.66;68.46;100645.16;4940820;29;20391;-82
2022/07/12 03:00:10;;;;;;;2.72;1.92;;;;;;;16.28;69.27;100745.28;4951412;29;20375;-84
2022/07/12 03:02:36;;;;;;;5.18;1.90;;;;;;;16.11;68.96;100709.38;4947067;29;20036;-83
2022/07/12 03:05:01;;;;;;;4.07;2.05;;;;;;;16.18;69.28;100744.22;4952565;29;20735;-82
2022/07/12 03:07:27;;;;;;;6.00;1.95;;;;;;;16.12;69.56;100721.53;4967385;28;20035;-84
2022/07/12 03:09:52;;;;;;;3.97;1.77;;;;;;;16.10;69.13;100738.88;4952527;29;20038;-82
2022/07/12 03:12:18;;;;;;;3.45;2.03;;;;;;;16.12;68.88;100749.31;4952485;28;20031;-83
2022/07/12 03:14:43;;;;;;;2.70;1.90;;;;;;;16.20;69.25;100752.06;4952233;28;20114;-83
2022/07/12 03:17:09;;;;;;;2.97;1.80;;;;;;;15.77;69.57;100736.47;4952607;29;20035;-82
2022/07/12 03:19:35;;;;;;;2.63;1.80;;;;;;;15.77;69.77;100724.31;4951056;28;20122;-81
2022/07/12 03:22:00;;;;;;;3.55;2.00;;;;;;;15.91;69.55;100747.19;4952169;29;20562;-82
2022/07/12 03:24:25;;;;;;;3.05;2.05;;;;;;;15.53;69.27;100673.53;4952254;29;20031;-82
2022/07/12 03:26:51;;;;;;;2.85;2.10;;;;;;;15.72;69.05;100725.09;4955312;28;20035;-82
2022/07/12 03:29:16;;;;;;;3.47;2.05;;;;;;;15.90;69.55;100735.91;4956042;28;20038;-82
2022/07/12 03:31:42;;;;;;;2.88;1.98;;;;;;;15.89;68.20;100735.84;4956300;28;20106;-82
2022/07/12 03:34:07;;;;;;;6.03;2.40;;;;;;;15.81;68.33;100727.84;4955966;28;20031;-81
2022/07/12 03:36:33;;;;;;;3.05;1.88;;;;;;;15.52;68.58;100691.72;4956225;28;20474;-83
2022/07/12 03:38:58;;;;;;;3.95;2.17;;;;;;;15.60;68.73;100729.19;4970933;28;20486;-82
2022/07/12 03:41:26;;;;;;;2.35;1.90;;;;;;;15.79;69.45;100740.00;4956032;28;20031;-82
2022/07/12 03:43:51;;;;;;;3.30;2.17;;;;;;;16.02;68.94;100750.88;4955494;28;20031;-82
2022/07/12 03:46:17;;;;;;;2.92;2.05;;;;;;;15.27;68.75;100654.78;4955774;28;20602;-82
2022/07/12 03:48:42;;;;;;;8.23;2.20;;;;;;;15.62;68.93;100732.69;4955636;28;20044;-82
2022/07/12 03:51:08;;;;;;;5.15;2.10;;;;;;;15.93;69.94;100759.38;4955528;28;20486;-82
2022/07/12 03:53:33;;;;;;;6.10;2.00;;;;;;;15.87;68.56;100753.19;4955564;28;20558;-82
2022/07/12 03:55:58;;;;;;;5.30;2.10;;;;;;;15.91;68.59;100747.19;4955558;28;20028;-82
2022/07/12 03:58:24;;;;;;;3.70;2.50;;;;;;;16.09;67.86;100741.47;4955682;28;20023;-82
2022/07/12 04:00:49;;;;;;;4.47;2.10;;;;;;;16.15;67.42;100741.56;4955793;28;20031;-82
2022/07/12 04:03:15;;;;;;;3.70;1.92;;;;;;;15.89;66.93;100700.28;4970094;28;20035;-82
2022/07/12 04:05:40;;;;;;;2.67;2.13;;;;;;;16.13;67.02;100746.72;4954072;29;20031;-82
2022/07/12 04:08:06;;;;;;;3.97;2.15;;;;;;;16.17;66.56;100752.88;4955353;28;20065;-81
2022/07/12 04:10:31;;;;;;;3.08;1.98;;;;;;;16.22;67.13;100751.22;4955422;28;20049;-80
2022/07/12 04:12:57;;;;;;;6.32;2.10;;;;;;;16.25;66.24;100761.72;4970046;28;20098;-85
2022/07/12 04:15:22;;;;;;;5.63;2.72;;;;;;;15.87;67.09;100665.53;4955346;28;20034;-81
2022/07/12 04:17:47;;;;;;;5.57;2.30;;;;;;;16.38;65.72;100748.91;4954985;28;20038;-81
2022/07/12 04:20:13;;;;;;;4.63;2.10;;;;;;;16.38;64.72;100744.56;4944819;28;20136;-80
2022/07/12 04:22:39;;;;;;;3.65;2.15;;;;;;;16.58;63.79;100770.97;4949527;29;20113;-81
2022/07/12 04:25:06;;;;;;;3.55;2.08;;;;;;;16.36;64.25;100719.34;4969879;28;20109;-82
2022/07/12 04:27:32;;;;;;;4.22;2.33;;;;;;;16.72;63.89;100770.34;4955056;29;20052;-81
2022/07/12 04:29:58;;;;;;;2.80;1.90;;;;;;;16.70;62.30;100761.59;4985833;28;20038;-81
2022/07/12 04:32:23;;;;;;;3.58;1.92;;;;;;;16.94;63.39;100772.47;4954712;28;20039;-80
2022/07/12 04:34:49;;;;;;;3.83;1.67;;;;;;;16.79;62.90;100730.47;4954256;29;20035;-81
2022/07/12 04:37:14;;;;;;;2.08;1.85;;;;;;;17.09;61.85;100768.34;4954159;28;20106;-81
2022/07/12 04:39:40;;;;;;;3.63;1.90;;;;;;;17.34;61.38;100785.22;4954857;28;20402;-81
2022/07/12 04:42:05;;;;;;;3.90;2.15;;;;;;;17.17;60.55;100766.75;4954833;29;20031;-81
2022/07/12 04:44:30;;;;;;;3.45;1.88;;;;;;;17.18;60.42;100776.28;4985366;28;20111;-80
2022/07/12 04:46:56;;;;;;;3.88;1.90;;;;;;;17.04;60.98;100725.66;4936922;29;20167;-80
2022/07/12 04:49:21;;;;;;;3.78;2.17;;;;;;;17.06;60.91;100718.72;4969569;28;20031;-80
2022/07/12 04:51:47;;;;;;;3.33;2.05;;;;;;;17.47;59.22;100770.63;4936937;29;20031;-80
2022/07/12 04:54:12;;;;;;;3.88;2.42;;;;;;;17.68;59.02;100787.41;4954202;29;20113;-84
2022/07/12 04:56:38;;;;;;;6.07;3.10;;;;;;;17.63;58.17;100774.28;4954602;29;20039;-87
2022/07/12 04:59:03;;;;;;;3.90;1.90;;;;;;;17.36;58.11;100717.38;4953160;28;20046;-83
2022/07/12 05:01:29;;;;;;;5.60;1.75;;;;;;;17.81;59.27;100781.50;4954553;28;20459;-82
2022/07/12 05:03:55;;;;;;;2.55;1.73;;;;;;;17.72;58.32;100768.31;4953066;28;20054;-83
2022/07/12 05:06:21;;;;;;;2.95;1.80;;;;;;;17.54;57.20;100727.19;4953995;28;20062;-85
2022/07/12 05:08:46;;;;;;;4.03;1.90;;;;;;;17.93;57.43;100788.59;4954260;28;20459;-83
2022/07/12 05:11:12;;;;;;;2.63;1.60;;;;;;;17.90;57.86;100763.31;4985155;28;20046;-87
2022/07/12 05:13:37;;;;;;;3.00;1.70;;;;;;;18.15;57.87;100792.38;4951804;28;20023;-85
2022/07/12 05:16:03;;;;;;;2.90;1.70;;;;;;;17.82;57.16;100704.91;4936633;29;20031;-84
2022/07/12 05:18:29;;;;;;;4.18;2.03;;;;;;;18.38;57.81;100783.88;4936553;29;20438;-83
2022/07/12 05:20:55;;;;;;;7.53;2.58;;;;;;;18.21;57.76;100732.31;4954052;29;20035;-79
2022/07/12 05:23:20;;;;;;;3.72;1.85;;;;;;;18.64;56.17;100789.38;4954229;29;20093;-82
2022/07/12 05:25:47;;;;;;;4.03;1.95;;;;;;;18.69;56.71;100792.91;4953754;29;20037;-83
2022/07/12 05:28:15;;;;;;;4.70;1.80;;;;;;;18.55;55.64;100778.81;4953772;29;20042;-83
2022/07/12 05:30:42;;;;;;;2.38;1.50;;;;;;;18.62;57.82;100790.19;4936286;28;20031;-84
2022/07/12 05:33:07;;;;;;;6.07;2.17;;;;;;;18.67;55.91;100783.28;4953994;29;20143;-80
2022/07/12 05:35:33;;;;;;;3.08;1.83;;;;;;;18.51;55.07;100787.50;4953405;29;20733;-83
2022/07/12 05:37:58;;;;;;;4.45;1.70;;;;;;;18.37;55.81;100763.84;4968056;28;20069;-86
2022/07/12 05:40:24;;;;;;;4.28;1.90;;;;;;;18.59;57.15;100784.09;4968339;28;20035;-80
2022/07/12 05:42:51;;;;;;;2.28;1.73;;;;;;;18.39;55.93;100710.72;4951351;29;20035;-83
2022/07/12 05:45:16;;;;;;;3.33;1.63;;;;;;;18.91;56.34;100791.34;4953328;28;20043;-82
2022/07/12 05:47:42;;;;;;;2.80;1.63;;;;;;;19.00;54.36;100787.91;4952013;28;20027;-86
2022/07/12 05:50:08;;;;;;;2.30;1.50;;;;;;;18.85;54.59;100777.31;4952695;28;20057;-77
2022/07/12 05:55:17;;;;;;;3.38;1.65;;;;;;;18.69;54.94;100771.09;4953363;28;20466;-80
2022/07/12 05:57:42;;;;;;;1.73;1.63;;;;;;;18.87;54.76;100776.47;4954300;29;20031;-83
2022/07/12 06:00:09;;;;;;;3.72;1.88;;;;;;;19.07;56.62;100766.19;4953618;29;20027;-82
2022/07/12 06:02:34;;;;;;;2.75;1.70;;;;;;;19.32;54.45;100781.19;4935929;29;20437;-82
2022/07/12 06:05:00;;;;;;;3.97;2.03;;;;;;;19.33;54.55;100767.22;4952905;29;20035;-83
2022/07/12 06:07:25;;;;;;;3.97;1.70;;;;;;;19.73;53.87;100783.13;4953493;29;20470;-81
2022/07/12 06:09:51;;;;;;;2.97;1.90;;;;;;;19.57;54.33;100742.88;4934261;29;20415;-82
2022/07/12 06:12:16;;;;;;;2.53;1.40;;;;;;;19.36;52.87;100691.31;4967704;28;20033;-83
2022/07/12 06:14:42;;;;;;;3.92;1.60;;;;;;;19.90;53.35;100778.00;4940908;28;20034;-82
2022/07/12 06:17:07;;;;;;;1.77;1.40;;;;;;;20.14;52.18;100781.56;4935807;29;20032;-82
2022/07/12 06:19:33;;;;;;;7.43;1.95;;;;;;;20.19;51.31;100756.22;4951693;29;20043;-83
2022/07/12 06:21:58;;;;;;;3.17;1.58;;;;;;;20.26;50.68;100764.97;4953116;29;20101;-83
2022/07/12 06:24:24;;;;;;;4.88;1.35;;;;;;;20.12;50.68;100738.72;4935618;29;20027;-84
2022/07/12 06:26:49;;;;;;;6.20;1.58;;;;;;;20.34;50.55;100771.09;4935595;29;20031;-82
2022/07/12 06:29:15;;;;;;;2.47;1.20;;;;;;;20.42;50.56;100766.72;4935408;29;20034;-82
2022/07/12 06:31:40;;;;;;;3.00;1.35;;;;;;;20.65;52.25;100771.13;4935757;29;20059;-82
2022/07/12 06:34:05;;;;;;;3.22;1.30;;;;;;;20.48;50.35;100739.63;4952826;28;20030;-82
2022/07/12 06:36:31;;;;;;;2.20;1.40;;;;;;;20.60;49.85;100744.00;4951407;28;20039;-82
2022/07/12 06:38:56;;;;;;;4.32;1.38;;;;;;;20.44;49.29;100698.56;4952797;28;20548;-81
2022/07/12 06:41:22;;;;;;;6.20;1.40;;;;;;;20.92;50.47;100777.25;4951301;29;20035;-83
2022/07/12 06:43:47;;;;;;;2.47;1.30;;;;;;;21.11;50.38;100760.63;4935197;28;20479;-82
2022/07/12 06:46:12;;;;;;;6.68;1.95;;;;;;;21.03;49.47;100730.00;4935305;29;20514;-81
2022/07/12 06:48:38;;;;;;;3.65;1.17;;;;;;;21.04;47.23;100769.38;4935338;29;20598;-80
2022/07/12 06:51:04;;;;;;;6.00;1.33;;;;;;;20.66;49.36;100697.66;4935390;29;20042;-82
2022/07/12 06:53:29;;;;;;;2.25;1.38;;;;;;;20.72;47.33;100740.53;4935202;29;20490;-82
2022/07/12 06:55:57;;;;;;;6.15;1.50;;;;;;;20.94;52.01;100765.88;4952321;28;20038;-83
2022/07/12 06:58:22;;;;;;;4.68;1.55;;;;;;;20.78;48.54;100727.41;4951165;28;20413;-82
2022/07/12 07:00:48;;;;;;;2.85;1.40;;;;;;;20.83;47.52;100721.28;4954589;28;20032;-83
2022/07/12 07:03:13;;;;;;;3.00;1.60;;;;;;;21.28;48.78;100754.44;4955128;29;20517;-83
2022/07/12 07:05:39;;;;;;;2.63;1.42;;;;;;;21.40;47.90;100770.16;4956319;29;20062;-82
2022/07/12 07:08:05;;;;;;;2.83;1.30;;;;;;;21.47;48.97;100771.91;4956550;28;20046;-83
2022/07/12 07:10:31;;;;;;;4.60;1.50;;;;;;;21.50;44.75;100777.13;4955145;28;20031;-84
2022/07/12 07:12:56;;;;;;;5.15;1.60;;;;;;;21.45;47.94;100776.28;4953194;28;20063;-84
2022/07/12 07:15:22;;;;;;;4.50;1.88;;;;;;;21.49;47.36;100777.16;4954403;29;20023;-84
2022/07/12 07:17:47;;;;;;;7.47;1.50;;;;;;;21.47;45.75;100773.63;4938634;29;20122;-83
2022/07/12 07:20:13;;;;;;;3.40;1.30;;;;;;;21.61;44.98;100760.50;4938653;29;20110;-83
2022/07/12 07:22:39;;;;;;;3.40;1.48;;;;;;;21.75;45.08;100765.72;4970714;28;20414;-83
2022/07/12 07:25:06;;;;;;;5.78;1.60;;;;;;;21.79;45.75;100746.41;4953596;28;20066;-84
2022/07/12 07:27:31;;;;;;;2.08;1.17;;;;;;;21.84;43.91;100759.53;4955780;29;20043;-81
2022/07/12 07:32:40;;;;;;;2.28;1.10;;;;;;;21.95;42.78;100762.97;4953213;28;20041;-82
2022/07/12 07:35:06;;;;;;;2.65;1.30;;;;;;;21.92;43.65;100731.44;4938017;29;20031;-86
2022/07/12 07:37:35;;;;;;;3.60;1.10;;;;;;;22.02;43.47;100734.88;4955295;29;20110;-81
2022/07/12 07:40:01;;;;;;;1.33;1.20;;;;;;;22.18;42.62;100743.53;4938409;29;20023;-78
2022/07/12 07:42:26;;;;;;;3.50;1.30;;;;;;;22.09;45.24;100711.19;4938446;29;20030;-85
2022/07/12 07:44:51;;;;;;;3.90;1.35;;;;;;;22.05;42.95;100706.81;4937629;29;20046;-84
2022/07/12 07:47:17;;;;;;;1.77;1.33;;;;;;;22.36;41.81;100760.97;4956224;29;20055;-81
2022/07/12 07:49:43;;;;;;;6.82;1.52;;;;;;;22.43;38.86;100739.91;4939640;29;20466;-82
2022/07/12 07:52:09;;;;;;;2.25;1.40;;;;;;;22.54;37.77;100752.09;4938780;29;20047;-84
2022/07/12 07:54:34;;;;;;;2.30;1.27;;;;;;;22.58;38.71;100745.91;4937576;29;20106;-85
2022/07/12 07:57:00;;;;;;;8.43;1.52;;;;;;;22.89;38.69;100754.41;4937715;29;20034;-87
2022/07/12 07:59:25;;;;;;;2.00;1.40;;;;;;;22.73;38.86;100761.59;4953276;28;20062;-82
2022/07/12 08:01:54;;;;;;;2.60;1.10;;;;;;;22.67;38.11;100723.91;4955084;29;20548;-86
2022/07/12 08:04:21;;;;;;;2.45;1.10;;;;;;;22.58;40.78;100683.66;4937694;29;20032;-85
2022/07/12 08:06:47;;;;;;;2.90;1.60;;;;;;;23.09;41.12;100737.53;4937822;29;20023;-85
2022/07/12 08:09:14;;;;;;;5.00;1.50;;;;;;;23.15;37.43;100745.38;4954655;28;20023;-86
2022/07/12 08:11:40;;;;;;;2.22;1.10;;;;;;;23.01;37.85;100728.84;4952568;28;20031;-80
2022/07/12 08:14:06;;;;;;;2.95;1.10;;;;;;;23.09;35.46;100750.69;4937353;29;20034;-86
2022/07/12 08:16:33;;;;;;;2.28;1.30;;;;;;;22.83;37.26;100727.25;4937761;29;20094;-86
2022/07/12 08:18:59;;;;;;;3.30;1.13;;;;;;;23.17;38.04;100735.72;4932838;29;20606;-80
2022/07/12 08:21:25;;;;;;;2.63;1.33;;;;;;;22.89;35.93;100692.97;4932887;29;20078;-81
2022/07/12 08:23:50;;;;;;;2.15;1.10;;;;;;;23.19;36.47;100733.97;4931566;29;20051;-81
2022/07/12 08:26:16;;;;;;;1.98;1.35;;;;;;;23.45;37.20;100726.63;4932246;29;20094;-81
2022/07/12 08:28:42;;;;;;;2.08;1.38;;;;;;;23.42;35.84;100727.53;4931973;29;20083;-82
2022/07/12 08:31:08;;;;;;;1.83;1.10;;;;;;;23.20;36.82;100704.09;4931635;29;20047;-82
2022/07/12 08:33:33;;;;;;;4.75;1.30;;;;;;;23.35;37.05;100723.22;4931650;29;20031;-81
2022/07/12 08:35:59;;;;;;;1.40;1.27;;;;;;;23.37;37.03;100711.78;4933419;29;20091;-80
2022/07/12 08:38:24;;;;;;;2.92;1.38;;;;;;;23.58;38.82;100718.53;4933424;29;20035;-87
2022/07/12 08:40:50;;;;;;;8.40;1.38;;;;;;;23.68;38.81;100710.53;4932988;29;20031;-85
2022/07/12 08:43:15;;;;;;;3.05;1.20;;;;;;;23.66;37.83;100715.81;4932493;29;20068;-81
2022/07/12 08:45:42;;;;;;;9.43;1.70;;;;;;;23.45;37.38;100692.38;4932006;29;20047;-82
2022/07/12 08:48:08;;;;;;;3.97;1.20;;;;;;;23.50;37.49;100694.06;4932664;29;20035;-80
2022/07/12 08:50:34;;;;;;;2.67;1.27;;;;;;;23.81;34.69;100704.19;4932539;29;20040;-83
2022/07/12 08:52:59;;;;;;;2.05;1.00;;;;;;;23.99;35.06;100710.09;4932149;29;20521;-81
2022/07/12 08:55:27;;;;;;;6.25;1.20;;;;;;;24.20;36.76;100711.53;4934432;29;20078;-82
2022/07/12 08:57:54;;;;;;;2.65;1.10;;;;;;;23.80;35.10;100647.09;4954179;29;20027;-81
2022/07/12 09:00:21;;;;;;;2.95;0.98;;;;;;;23.94;35.08;100661.84;4954130;29;20399;-82
2022/07/12 09:03:06;;;;;;;2.30;1.10;;;;;;;24.11;34.45;100704.66;4954105;29;20034;-80
2022/07/12 09:05:34;;;;;;;2.78;1.33;;;;;;;24.33;35.95;100707.81;4952539;29;20483;-82
2022/07/12 09:08:09;;;;;;;2.25;1.15;;;;;;;24.51;36.41;100695.22;4936639;29;20082;-84
2022/07/12 09:10:51;;;;;;;6.43;1.42;;;;;;;24.62;35.40;100703.81;4936689;29;20057;-84
2022/07/12 09:13:18;;;;;;;3.15;1.15;;;;;;;24.45;33.37;100666.28;4935896;29;20471;-83
2022/07/12 09:15:46;;;;;;;3.47;1.42;;;;;;;24.77;34.63;100691.28;4936009;29;20126;-85
2022/07/12 09:18:17;;;;;;;2.13;1.45;;;;;;;24.44;34.58;100683.91;4936439;29;20031;-86
2022/07/12 09:20:49;;;;;;;1.77;1.10;;;;;;;24.50;36.09;100672.34;4912834;29;20134;-87
2022/07/12 09:23:15;;;;;;;2.63;1.25;;;;;;;24.52;34.94;100636.25;4928606;29;20076;-85
2022/07/12 09:25:45;;;;;;;1.92;1.10;;;;;;;24.87;33.55;100677.00;4918028;29;20068;-82
2022/07/12 09:28:11;;;;;;;3.75;1.50;;;;;;;25.09;35.34;100676.59;4894766;29;20115;-86
2022/07/12 09:30:47;;;;;;;3.55;1.35;;;;;;;25.14;33.80;100680.00;4883067;29;20809;-84
2022/07/12 09:36:17;;;;;;;3.58;1.08;;;;;;;24.95;32.65;100622.25;4893745;29;20116;-85
2022/07/12 09:38:45;;;;;;;2.95;1.30;;;;;;;25.28;33.90;100675.28;4892934;29;20041;-86
2022/07/12 09:41:18;;;;;;;7.43;1.60;;;;;;;25.44;37.25;100659.16;4893863;29;20131;-86
2022/07/12 09:43:44;;;;;;;2.05;1.10;;;;;;;25.58;32.79;100659.69;4909364;29;20555;-84
2022/07/12 09:46:09;;;;;;;2.85;1.30;;;;;;;25.85;34.58;100665.28;4928570;29;20039;-88
2022/07/12 09:48:37;;;;;;;3.15;1.30;;;;;;;25.91;31.79;100667.78;4915086;29;20551;-90
2022/07/12 09:51:04;;;;;;;5.90;1.40;;;;;;;25.86;31.44;100658.19;4922979;28;20133;-86
2022/07/12 09:53:45;;;;;;;2.17;1.23;;;;;;;25.92;30.45;100661.59;4969213;28;20030;-82
2022/07/12 09:56:16;;;;;;;2.20;1.10;;;;;;;26.07;33.24;100647.16;4969358;28;20591;-81
2022/07/12 09:58:47;;;;;;;1.35;0.93;;;;;;;25.64;30.28;100653.41;4969207;28;20043;-86
2022/07/12 10:01:15;;;;;;;2.78;1.08;;;;;;;25.88;32.67;100635.25;4969462;28;20033;-85
2022/07/12 10:03:42;;;;;;;2.05;0.95;;;;;;;26.19;32.02;100638.03;4969061;28;20540;-85
2022/07/12 10:06:10;;;;;;;1.50;1.10;;;;;;;26.43;32.82;100649.78;4969122;28;20049;-85
2022/07/12 10:08:35;;;;;;;4.25;1.10;;;;;;;26.32;33.16;100662.41;4969277;28;20041;-86
2022/07/12 10:11:01;;;;;;;1.95;0.90;;;;;;;26.01;31.46;100618.16;4969477;28;20039;-84
2022/07/12 10:13:28;;;;;;;1.55;1.00;;;;;;;26.28;29.64;100634.28;4952865;28;20050;-87
2022/07/12 10:16:00;;;;;;;1.40;1.08;;;;;;;26.73;29.17;100638.38;4952898;28;20793;-87
2022/07/12 10:18:26;;;;;;;1.60;0.95;;;;;;;26.90;30.68;100611.47;4971274;28;20493;-83
2022/07/12 10:20:52;;;;;;;6.57;1.55;;;;;;;27.20;31.39;100630.88;4957372;28;20022;-85
2022/07/12 10:23:30;;;;;;;2.70;1.05;;;;;;;27.35;31.97;100637.50;4944388;28;20046;-84
2022/07/12 10:25:55;;;;;;;1.77;1.02;;;;;;;27.18;31.11;100639.78;4948778;28;20024;-91
2022/07/12 10:28:21;;;;;;;21.85;1.50;;;;;;;27.11;31.35;100592.25;4931945;29;20467;-87
2022/07/12 10:30:49;;;;;;;3.47;1.20;;;;;;;27.10;31.81;100637.38;4947762;28;20090;-88
2022/07/12 10:33:21;;;;;;;2.67;1.10;;;;;;;27.24;29.08;100616.63;4948734;28;20147;-86
2022/07/12 10:36:06;;;;;;;2.90;1.08;;;;;;;27.63;29.94;100612.81;4946541;28;20118;-88
2022/07/12 10:38:33;;;;;;;5.43;1.10;;;;;;;27.79;29.89;100628.22;4947476;28;20394;-87
2022/07/12 10:41:18;;;;;;;4.57;1.20;;;;;;;27.58;29.06;100559.94;4915805;29;20036;-85
2022/07/12 10:46:29;;;;;;;1.88;1.10;;;;;;;27.59;28.71;100613.81;4935101;29;20106;-87
2022/07/12 10:49:25;;;;;;;7.07;1.48;;;;;;;27.62;29.55;100611.09;4934070;29;20040;-87
2022/07/12 10:52:09;;;;;;;1.65;1.00;;;;;;;27.19;30.76;100613.25;4916983;29;20028;-88
2022/07/12 10:54:35;;;;;;;2.55;1.02;;;;;;;26.70;30.57;100609.34;4933567;29;20056;-92
2022/07/12 10:57:01;;;;;;;2.83;1.00;;;;;;;26.93;28.79;100601.66;4947338;28;20055;-86
2022/07/12 10:59:27;;;;;;;2.20;1.00;;;;;;;26.86;30.40;100572.72;4915838;29;20070;-89
2022/07/12 11:01:55;;;;;;;1.73;1.05;;;;;;;26.76;29.75;100614.50;4916028;29;20111;-84
2022/07/12 11:04:21;;;;;;;2.20;1.30;;;;;;;26.53;29.99;100597.44;4947824;28;20032;-77
2022/07/12 11:06:47;;;;;;;1.77;1.10;;;;;;;26.12;30.49;100559.69;4932645;29;20532;-84
2022/07/12 11:09:16;;;;;;;1.80;1.30;;;;;;;26.95;31.70;100593.63;4915791;29;20443;-86
2022/07/12 11:11:48;;;;;;;1.70;1.10;;;;;;;26.88;30.76;100587.66;4915834;29;20360;-83
2022/07/12 11:14:26;;;;;;;1.95;1.10;;;;;;;27.01;29.97;100589.97;4915313;29;20031;-82
2022/07/12 11:16:52;;;;;;;5.88;1.20;;;;;;;27.09;30.53;100585.28;4915520;29;20028;-84
2022/07/12 11:19:25;;;;;;;3.00;1.08;;;;;;;27.48;29.40;100585.00;4932600;29;20028;-83
2022/07/12 11:21:58;;;;;;;2.67;1.10;;;;;;;27.46;31.39;100578.03;4915285;29;20031;-86
2022/07/12 11:24:26;;;;;;;5.05;1.10;;;;;;;27.00;31.11;100575.81;4931172;29;20039;-88
2022/07/12 11:26:52;;;;;;;2.90;1.02;;;;;;;26.94;29.14;100598.09;4947265;28;20031;-83
2022/07/12 11:29:19;;;;;;;5.43;1.23;;;;;;;27.19;32.40;100573.50;4969492;28;20745;-85
2022/07/12 11:31:46;;;;;;;2.13;1.10;;;;;;;27.50;31.24;100574.34;4954869;28;20046;-82
2022/07/12 11:34:24;;;;;;;2.20;1.13;;;;;;;27.72;31.09;100587.78;4940384;28;20463;-84
2022/07/12 11:36:58;;;;;;;1.15;0.90;;;;;;;27.68;27.41;100557.00;4917155;29;20035;-86